sensor_id;sensor_type;location;lat;lon;timestamp;pressure;altitude;pressure_sealevel;temperature;humidity
68145;BME280;55400;51.824;-0.196;2023-05-02T00:00:45;101265.0;;;13.43;63.30
68145;BME280;55400;51.824;-0.196;2023-05-02T00:04:45;101272.27;;;13.44;63.70
68145;BME280;55400;51.824;-0.196;2023-05-02T00:08:45;101277.68;;;13.42;63.55
68145;BME280;55400;51.824;-0.196;2023-05-02T00:12:45;101277.86;;;13.38;63.67
68145;BME280;55400;51.824;-0.196;2023-05-02T00:16:45;101280.35;;;13.31;63.64
68145;BME280;55400;51.824;-0.196;2023-05-02T00:20:45;101290.08;;;13.33;63.74
68145;BME280;55400;51.824;-0.196;2023-05-02T00:28:45;101293.23000000001;;;13.26;63.68
68145;BME280;55400;51.824;-0.196;2023-05-02T00:32:45;101298.19;;;13.22;63.77
68145;BME280;55400;51.824;-0.196;2023-05-02T00:36:45;101302.84;;;13.18;63.92
68145;BME280;55400;51.824;-0.196;2023-05-02T00:40:46;101305.22;;;13.13;63.92
68145;BME280;55400;51.824;-0.196;2023-05-02T00:44:45;101305.11;;;13.09;64.30
68145;BME280;55400;51.824;-0.196;2023-05-02T00:48:45;101304.76999999999;;;13.08;64.59
68145;BME280;55400;51.824;-0.196;2023-05-02T00:52:45;101304.76999999999;;;13.05;64.59
68145;BME280;55400;51.824;-0.196;2023-05-02T00:56:45;101298.95;;;13.03;64.67
68145;BME280;55400;51.824;-0.196;2023-05-02T01:00:48;101298.67;;;13.00;64.52
68145;BME280;55400;51.824;-0.196;2023-05-02T01:04:49;101305.76999999999;;;12.92;64.87
68145;BME280;55400;51.824;-0.196;2023-05-02T01:08:46;101313.23999999999;;;12.84;64.87
68145;BME280;55400;51.824;-0.196;2023-05-02T01:12:46;101318.48;;;12.82;65.11
68145;BME280;55400;51.824;-0.196;2023-05-02T01:16:45;101318.48;;;12.75;65.39
68145;BME280;55400;51.824;-0.196;2023-05-02T01:20:45;101319.67;;;12.72;65.49
68145;BME280;55400;51.824;-0.196;2023-05-02T01:24:48;101319.67;;;12.73;65.55
68145;BME280;55400;51.824;-0.196;2023-05-02T01:28:49;101330.26999999999;;;12.74;65.52
68145;BME280;55400;51.824;-0.196;2023-05-02T01:32:46;101330.26999999999;;;12.70;65.30
68145;BME280;55400;51.824;-0.196;2023-05-02T01:40:45;101341.85;;;12.68;65.42
68145;BME280;55400;51.824;-0.196;2023-05-02T01:44:45;101337.95;;;12.66;65.66
68145;BME280;55400;51.824;-0.196;2023-05-02T01:48:45;101346.42;;;12.64;65.85
68145;BME280;55400;51.824;-0.196;2023-05-02T01:52:46;101346.42;;;12.61;65.69
68145;BME280;55400;51.824;-0.196;2023-05-02T01:56:45;101344.25;;;12.54;65.49
68145;BME280;55400;51.824;-0.196;2023-05-02T02:00:45;101350.59;;;12.52;65.77
68145;BME280;55400;51.824;-0.196;2023-05-02T02:04:46;101353.97;;;12.50;66.03
68145;BME280;55400;51.824;-0.196;2023-05-02T02:08:45;101357.06999999999;;;12.54;65.93
68145;BME280;55400;51.824;-0.196;2023-05-02T02:12:47;101356.88;;;12.56;66.05
68145;BME280;55400;51.824;-0.196;2023-05-02T02:16:45;101359.22;;;12.60;65.91
68145;BME280;55400;51.824;-0.196;2023-05-02T02:24:46;101368.12;;;12.58;65.90
68145;BME280;55400;51.824;-0.196;2023-05-02T02:28:45;101368.12;;;12.57;65.90
68145;BME280;55400;51.824;-0.196;2023-05-02T02:32:46;101375.89;;;12.63;66.18
68145;BME280;55400;51.824;-0.196;2023-05-02T02:36:46;101386.69;;;12.61;66.04
68145;BME280;55400;51.824;-0.196;2023-05-02T02:40:46;101391.06;;;12.62;66.07
68145;BME280;55400;51.824;-0.196;2023-05-02T02:44:47;101396.17;;;12.60;66.22
68145;BME280;55400;51.824;-0.196;2023-05-02T02:48:48;101396.17;;;12.53;65.94
68145;BME280;55400;51.824;-0.196;2023-05-02T02:52:49;101399.8;;;12.52;66.41
68145;BME280;55400;51.824;-0.196;2023-05-02T03:00:46;101405.17;;;12.46;66.58
68145;BME280;55400;51.824;-0.196;2023-05-02T03:04:45;101414.20000000001;;;12.41;66.85
68145;BME280;55400;51.824;-0.196;2023-05-02T03:08:46;101414.20000000001;;;12.35;66.57
68145;BME280;55400;51.824;-0.196;2023-05-02T03:12:45;101412.97;;;12.32;66.57
68145;BME280;55400;51.824;-0.196;2023-05-02T03:20:46;101415.72;;;12.29;66.90
68145;BME280;55400;51.824;-0.196;2023-05-02T03:28:46;101422.79999999999;;;12.20;67.05
68145;BME280;55400;51.824;-0.196;2023-05-02T03:32:46;101423.77;;;12.17;67.48
68145;BME280;55400;51.824;-0.196;2023-05-02T03:36:46;101422.34999999999;;;12.12;67.98
68145;BME280;55400;51.824;-0.196;2023-05-02T03:40:46;101429.1;;;12.05;68.24
68145;BME280;55400;51.824;-0.196;2023-05-02T03:44:46;101429.1;;;12.08;68.24
68145;BME280;55400;51.824;-0.196;2023-05-02T03:48:46;101442.13;;;12.11;68.06
68145;BME280;55400;51.824;-0.196;2023-05-02T03:52:46;101446.53;;;12.13;68.40
68145;BME280;55400;51.824;-0.196;2023-05-02T03:56:46;101446.53;;;12.14;68.48
68145;BME280;55400;51.824;-0.196;2023-05-02T04:00:46;101446.66;;;12.15;68.40
68145;BME280;55400;51.824;-0.196;2023-05-02T04:04:46;101450.23;;;12.11;68.56
68145;BME280;55400;51.824;-0.196;2023-05-02T04:12:46;101467.17;;;12.15;68.73
68145;BME280;55400;51.824;-0.196;2023-05-02T04:16:47;101467.17;;;12.16;68.65
68145;BME280;55400;51.824;-0.196;2023-05-02T04:20:46;101472.31;;;12.18;68.50
68145;BME280;55400;51.824;-0.196;2023-05-02T04:32:46;101474.92;;;12.15;68.46
68145;BME280;55400;51.824;-0.196;2023-05-02T04:36:46;101474.92;;;12.13;68.13
68145;BME280;55400;51.824;-0.196;2023-05-02T04:40:46;101482.56;;;12.12;68.28
68145;BME280;55400;51.824;-0.196;2023-05-02T04:48:46;101489.51;;;12.11;68.35
68145;BME280;55400;51.824;-0.196;2023-05-02T04:52:46;101495.81;;;12.09;68.11
68145;BME280;55400;51.824;-0.196;2023-05-02T04:56:46;101500.25;;;12.08;68.11
68145;BME280;55400;51.824;-0.196;2023-05-02T05:00:46;101513.11;;;12.06;67.93
68145;BME280;55400;51.824;-0.196;2023-05-02T05:04:46;101513.11;;;12.05;67.75
68145;BME280;55400;51.824;-0.196;2023-05-02T05:08:46;101531.61;;;12.04;67.55
68145;BME280;55400;51.824;-0.196;2023-05-02T05:16:46;101533.39;;;12.03;67.60
68145;BME280;55400;51.824;-0.196;2023-05-02T05:20:46;101533.39;;;12.04;67.53
68145;BME280;55400;51.824;-0.196;2023-05-02T05:24:53;101544.42;;;12.05;67.52
68145;BME280;55400;51.824;-0.196;2023-05-02T05:28:46;101544.42;;;12.09;67.50
68145;BME280;55400;51.824;-0.196;2023-05-02T05:32:46;101551.06;;;12.07;67.15
68145;BME280;55400;51.824;-0.196;2023-05-02T05:36:46;101549.5;;;12.04;66.45
68145;BME280;55400;51.824;-0.196;2023-05-02T05:40:48;101550.83;;;12.03;66.45
68145;BME280;55400;51.824;-0.196;2023-05-02T05:44:46;101550.83;;;12.00;66.32
68145;BME280;55400;51.824;-0.196;2023-05-02T05:48:46;101557.20999999999;;;12.01;66.28
68145;BME280;55400;51.824;-0.196;2023-05-02T05:52:46;101566.18999999999;;;11.99;66.14
68145;BME280;55400;51.824;-0.196;2023-05-02T05:56:46;101575.59;;;11.94;66.14
68145;BME280;55400;51.824;-0.196;2023-05-02T06:00:46;101575.59;;;11.93;66.21
68145;BME280;55400;51.824;-0.196;2023-05-02T06:08:46;101590.95999999999;;;11.90;66.16
68145;BME280;55400;51.824;-0.196;2023-05-02T06:12:46;101596.37;;;11.92;66.39
68145;BME280;55400;51.824;-0.196;2023-05-02T06:20:46;101601.06;;;11.94;66.20
68145;BME280;55400;51.824;-0.196;2023-05-02T06:24:46;101601.06;;;11.97;66.58
68145;BME280;55400;51.824;-0.196;2023-05-02T06:28:46;101609.27;;;12.00;66.34
68145;BME280;55400;51.824;-0.196;2023-05-02T06:32:46;101609.27;;;12.02;66.34
68145;BME280;55400;51.824;-0.196;2023-05-02T06:36:46;101608.54000000001;;;12.03;66.45
68145;BME280;55400;51.824;-0.196;2023-05-02T06:40:46;101612.73;;;12.04;66.44
68145;BME280;55400;51.824;-0.196;2023-05-02T06:44:46;101612.41;;;12.06;66.44
68145;BME280;55400;51.824;-0.196;2023-05-02T06:48:46;101611.5;;;12.09;66.64
68145;BME280;55400;51.824;-0.196;2023-05-02T06:52:46;101616.33;;;12.13;66.37
68145;BME280;55400;51.824;-0.196;2023-05-02T06:56:46;101624.08;;;12.17;66.70
68145;BME280;55400;51.824;-0.196;2023-05-02T07:00:46;101625.03;;;12.19;66.53
68145;BME280;55400;51.824;-0.196;2023-05-02T07:04:46;101625.03;;;12.24;66.53
68145;BME280;55400;51.824;-0.196;2023-05-02T07:08:46;101627.09999999999;;;12.30;66.16
68145;BME280;55400;51.824;-0.196;2023-05-02T07:12:46;101632.89;;;12.33;66.01
68145;BME280;55400;51.824;-0.196;2023-05-02T07:16:46;101633.65;;;12.30;65.71
68145;BME280;55400;51.824;-0.196;2023-05-02T07:20:46;101633.65;;;12.31;65.71
68145;BME280;55400;51.824;-0.196;2023-05-02T07:24:46;101632.69;;;12.36;65.75
68145;BME280;55400;51.824;-0.196;2023-05-02T07:28:46;101633.03;;;12.40;65.77
68145;BME280;55400;51.824;-0.196;2023-05-02T07:36:46;101633.83;;;12.43;65.22
68145;BME280;55400;51.824;-0.196;2023-05-02T07:40:46;101634.93999999999;;;12.47;65.47
68145;BME280;55400;51.824;-0.196;2023-05-02T07:44:46;101638.58;;;12.50;65.12
68145;BME280;55400;51.824;-0.196;2023-05-02T07:48:46;101644.34;;;12.52;64.83
68145;BME280;55400;51.824;-0.196;2023-05-02T07:52:46;101644.34;;;12.56;64.63
68145;BME280;55400;51.824;-0.196;2023-05-02T07:56:46;101653.38;;;12.60;64.69
68145;BME280;55400;51.824;-0.196;2023-05-02T08:00:46;101653.38;;;12.58;64.53
68145;BME280;55400;51.824;-0.196;2023-05-02T08:04:46;101654.03;;;12.60;64.67
68145;BME280;55400;51.824;-0.196;2023-05-02T08:08:46;101649.55;;;12.63;64.42
68145;BME280;55400;51.824;-0.196;2023-05-02T08:12:46;101652.4;;;12.69;64.05
68145;BME280;55400;51.824;-0.196;2023-05-02T08:16:46;101652.44;;;12.74;64.05
68145;BME280;55400;51.824;-0.196;2023-05-02T08:20:46;101652.37;;;12.78;63.77
68145;BME280;55400;51.824;-0.196;2023-05-02T08:24:46;101652.53;;;12.84;63.28
68145;BME280;55400;51.824;-0.196;2023-05-02T08:28:46;101660.39;;;12.90;63.24
68145;BME280;55400;51.824;-0.196;2023-05-02T08:32:46;101660.39;;;13.01;63.24
68145;BME280;55400;51.824;-0.196;2023-05-02T08:36:46;101664.70000000001;;;13.10;62.34
68145;BME280;55400;51.824;-0.196;2023-05-02T08:40:47;101664.70000000001;;;13.14;61.73
68145;BME280;55400;51.824;-0.196;2023-05-02T08:44:47;101669.59000000001;;;13.16;61.60
68145;BME280;55400;51.824;-0.196;2023-05-02T08:48:47;101676.31;;;13.19;61.57
68145;BME280;55400;51.824;-0.196;2023-05-02T08:56:47;101687.59999999999;;;13.26;60.64
68145;BME280;55400;51.824;-0.196;2023-05-02T09:00:49;101704.36;;;13.37;60.67
68145;BME280;55400;51.824;-0.196;2023-05-02T09:04:47;101714.39;;;13.43;60.67
68145;BME280;55400;51.824;-0.196;2023-05-02T09:08:47;101718.0;;;13.45;60.53
68145;BME280;55400;51.824;-0.196;2023-05-02T09:12:47;101722.83;;;13.41;60.05
68145;BME280;55400;51.824;-0.196;2023-05-02T09:16:46;101720.95000000001;;;13.44;60.20
68145;BME280;55400;51.824;-0.196;2023-05-02T09:20:47;101718.97;;;13.45;60.20
68145;BME280;55400;51.824;-0.196;2023-05-02T09:24:48;101718.97;;;13.52;60.20
68145;BME280;55400;51.824;-0.196;2023-05-02T09:28:47;101730.12999999999;;;13.56;60.10
68145;BME280;55400;51.824;-0.196;2023-05-02T09:32:47;101730.12999999999;;;13.64;59.88
68145;BME280;55400;51.824;-0.196;2023-05-02T09:36:48;101737.56;;;13.68;59.89
68145;BME280;55400;51.824;-0.196;2023-05-02T09:40:52;101740.52;;;13.67;59.58
68145;BME280;55400;51.824;-0.196;2023-05-02T09:44:47;101751.36;;;13.72;59.87
68145;BME280;55400;51.824;-0.196;2023-05-02T09:48:50;101751.36;;;13.73;59.87
68145;BME280;55400;51.824;-0.196;2023-05-02T09:56:54;101742.38;;;13.67;59.63
68145;BME280;55400;51.824;-0.196;2023-05-02T10:00:47;101743.72;;;13.68;59.65
68145;BME280;55400;51.824;-0.196;2023-05-02T10:04:47;101742.76;;;13.72;59.41
68145;BME280;55400;51.824;-0.196;2023-05-02T10:08:47;101744.42;;;13.78;59.10
68145;BME280;55400;51.824;-0.196;2023-05-02T10:12:47;101745.33;;;13.84;59.10
68145;BME280;55400;51.824;-0.196;2023-05-02T10:16:50;101745.33;;;13.92;58.75
68145;BME280;55400;51.824;-0.196;2023-05-02T10:20:47;101746.55;;;14.00;59.05
68145;BME280;55400;51.824;-0.196;2023-05-02T10:24:47;101753.25;;;14.02;58.72
68145;BME280;55400;51.824;-0.196;2023-05-02T10:28:47;101754.94;;;14.00;58.70
68145;BME280;55400;51.824;-0.196;2023-05-02T10:32:47;101753.7;;;13.99;58.04
68145;BME280;55400;51.824;-0.196;2023-05-02T10:36:47;101753.7;;;14.00;57.69
68145;BME280;55400;51.824;-0.196;2023-05-02T10:40:48;101752.98;;;14.01;58.18
68145;BME280;55400;51.824;-0.196;2023-05-02T10:44:47;101752.98;;;14.02;57.89
68145;BME280;55400;51.824;-0.196;2023-05-02T10:52:47;101767.7;;;14.00;57.87
68145;BME280;55400;51.824;-0.196;2023-05-02T11:00:47;101775.14;;;14.00;57.91
68145;BME280;55400;51.824;-0.196;2023-05-02T11:08:47;101779.66;;;14.07;57.71
68145;BME280;55400;51.824;-0.196;2023-05-02T11:12:48;101784.45;;;14.05;57.94
68145;BME280;55400;51.824;-0.196;2023-05-02T11:20:47;101787.45;;;14.10;57.58
68145;BME280;55400;51.824;-0.196;2023-05-02T11:24:47;101785.67;;;14.14;57.58
68145;BME280;55400;51.824;-0.196;2023-05-02T11:28:47;101779.04999999999;;;14.12;57.81
68145;BME280;55400;51.824;-0.196;2023-05-02T11:36:47;101776.19;;;14.23;57.57
68145;BME280;55400;51.824;-0.196;2023-05-02T11:40:49;101782.17;;;14.32;57.57
68145;BME280;55400;51.824;-0.196;2023-05-02T11:44:55;101780.7;;;14.44;56.90
68145;BME280;55400;51.824;-0.196;2023-05-02T11:48:47;101778.22;;;14.59;56.90
68145;BME280;55400;51.824;-0.196;2023-05-02T11:52:47;101782.47;;;14.61;56.57
68145;BME280;55400;51.824;-0.196;2023-05-02T11:56:47;101784.04000000001;;;14.65;56.89
68145;BME280;55400;51.824;-0.196;2023-05-02T12:00:48;101775.83;;;14.76;56.73
68145;BME280;55400;51.824;-0.196;2023-05-02T12:04:47;101780.1;;;14.83;56.26
68145;BME280;55400;51.824;-0.196;2023-05-02T12:08:47;101780.1;;;14.93;56.04
68145;BME280;55400;51.824;-0.196;2023-05-02T12:12:47;101780.86;;;14.86;55.80
68145;BME280;55400;51.824;-0.196;2023-05-02T12:16:47;101806.11;;;14.84;55.59
68145;BME280;55400;51.824;-0.196;2023-05-02T12:20:47;101805.2;;;14.87;55.82
68145;BME280;55400;51.824;-0.196;2023-05-02T12:24:47;101800.86;;;14.84;55.54
68145;BME280;55400;51.824;-0.196;2023-05-02T12:28:48;101803.91;;;14.73;55.54
68145;BME280;55400;51.824;-0.196;2023-05-02T12:32:54;101811.08;;;14.64;55.49
68145;BME280;55400;51.824;-0.196;2023-05-02T12:36:47;101810.88;;;14.58;55.49
68145;BME280;55400;51.824;-0.196;2023-05-02T12:40:48;101821.41;;;14.61;55.31
68145;BME280;55400;51.824;-0.196;2023-05-02T12:44:48;101821.42;;;14.65;55.31
68145;BME280;55400;51.824;-0.196;2023-05-02T12:48:47;101819.97;;;14.79;55.70
68145;BME280;55400;51.824;-0.196;2023-05-02T12:52:48;101819.97;;;14.81;54.98
68145;BME280;55400;51.824;-0.196;2023-05-02T12:56:47;101816.61;;;14.90;53.94
68145;BME280;55400;51.824;-0.196;2023-05-02T13:00:47;101816.61;;;15.06;55.38
68145;BME280;55400;51.824;-0.196;2023-05-02T13:04:47;101805.0;;;15.12;54.83
68145;BME280;55400;51.824;-0.196;2023-05-02T13:08:47;101811.15999999999;;;15.11;54.59
68145;BME280;55400;51.824;-0.196;2023-05-02T13:12:47;101801.29;;;15.23;54.49
68145;BME280;55400;51.824;-0.196;2023-05-02T13:16:48;101803.54999999999;;;15.24;54.60
68145;BME280;55400;51.824;-0.196;2023-05-02T13:20:47;101805.11;;;15.36;53.63
68145;BME280;55400;51.824;-0.196;2023-05-02T13:24:47;101803.91;;;15.41;53.11
68145;BME280;55400;51.824;-0.196;2023-05-02T13:28:47;101797.79;;;15.34;53.11
68145;BME280;55400;51.824;-0.196;2023-05-02T13:32:47;101797.79;;;15.29;53.20
68145;BME280;55400;51.824;-0.196;2023-05-02T13:36:47;101797.97;;;15.36;53.11
68145;BME280;55400;51.824;-0.196;2023-05-02T13:40:47;101797.09;;;15.44;53.31
68145;BME280;55400;51.824;-0.196;2023-05-02T13:44:47;101797.09;;;15.51;53.09
68145;BME280;55400;51.824;-0.196;2023-05-02T13:48:47;101805.06;;;15.57;52.40
68145;BME280;55400;51.824;-0.196;2023-05-02T13:52:50;101807.09000000001;;;15.62;52.75
68145;BME280;55400;51.824;-0.196;2023-05-02T13:56:47;101804.08;;;15.61;52.75
68145;BME280;55400;51.824;-0.196;2023-05-02T14:00:47;101801.09;;;15.49;51.93
68145;BME280;55400;51.824;-0.196;2023-05-02T14:04:47;101801.09;;;15.54;52.58
68145;BME280;55400;51.824;-0.196;2023-05-02T14:08:47;101795.48;;;15.57;52.55
68145;BME280;55400;51.824;-0.196;2023-05-02T14:12:47;101805.19;;;15.51;53.14
68145;BME280;55400;51.824;-0.196;2023-05-02T14:16:47;101802.55;;;15.63;53.30
68145;BME280;55400;51.824;-0.196;2023-05-02T14:20:47;101802.55;;;15.77;53.30
68145;BME280;55400;51.824;-0.196;2023-05-02T14:24:47;101809.74;;;15.88;52.43
68145;BME280;55400;51.824;-0.196;2023-05-02T14:28:48;101802.61;;;15.93;52.43
68145;BME280;55400;51.824;-0.196;2023-05-02T14:32:47;101799.13;;;16.03;52.05
68145;BME280;55400;51.824;-0.196;2023-05-02T14:36:48;101799.72;;;16.14;51.98
68145;BME280;55400;51.824;-0.196;2023-05-02T14:40:47;101799.72;;;16.16;52.10
68145;BME280;55400;51.824;-0.196;2023-05-02T14:44:48;101795.9;;;16.17;51.76
68145;BME280;55400;51.824;-0.196;2023-05-02T14:48:47;101788.79;;;16.25;51.16
68145;BME280;55400;51.824;-0.196;2023-05-02T14:52:47;101788.79;;;16.28;51.16
68145;BME280;55400;51.824;-0.196;2023-05-02T14:56:47;101787.3;;;16.31;51.42
68145;BME280;55400;51.824;-0.196;2023-05-02T15:00:48;101786.36;;;16.29;51.34
68145;BME280;55400;51.824;-0.196;2023-05-02T15:04:47;101786.36;;;16.30;51.47
68145;BME280;55400;51.824;-0.196;2023-05-02T15:08:48;101794.61;;;16.25;51.26
68145;BME280;55400;51.824;-0.196;2023-05-02T15:12:48;101794.61;;;16.19;50.61
68145;BME280;55400;51.824;-0.196;2023-05-02T15:16:48;101794.19;;;16.20;51.53
68145;BME280;55400;51.824;-0.196;2023-05-02T15:24:48;101786.44;;;16.18;51.35
68145;BME280;55400;51.824;-0.196;2023-05-02T15:28:48;101784.77;;;16.22;51.12
68145;BME280;55400;51.824;-0.196;2023-05-02T15:32:48;101780.05;;;16.24;50.85
68145;BME280;55400;51.824;-0.196;2023-05-02T15:36:48;101784.38;;;16.29;50.85
68145;BME280;55400;51.824;-0.196;2023-05-02T15:40:52;101784.38;;;16.36;50.95
68145;BME280;55400;51.824;-0.196;2023-05-02T15:44:48;101782.47;;;16.35;50.88
68145;BME280;55400;51.824;-0.196;2023-05-02T15:48:48;101787.28;;;16.34;50.32
68145;BME280;55400;51.824;-0.196;2023-05-02T15:52:48;101785.82;;;16.32;50.75
68145;BME280;55400;51.824;-0.196;2023-05-02T16:00:48;101792.54;;;16.29;50.79
68145;BME280;55400;51.824;-0.196;2023-05-02T16:04:48;101794.11;;;16.25;50.53
68145;BME280;55400;51.824;-0.196;2023-05-02T16:08:48;101794.11;;;16.21;50.53
68145;BME280;55400;51.824;-0.196;2023-05-02T16:12:48;101788.76000000001;;;16.19;50.30
68145;BME280;55400;51.824;-0.196;2023-05-02T16:16:48;101784.3;;;16.22;50.67
68145;BME280;55400;51.824;-0.196;2023-05-02T16:20:48;101784.3;;;16.23;50.74
68145;BME280;55400;51.824;-0.196;2023-05-02T16:24:48;101781.12999999999;;;16.35;50.42
68145;BME280;55400;51.824;-0.196;2023-05-02T16:28:48;101769.11;;;16.52;50.01
68145;BME280;55400;51.824;-0.196;2023-05-02T16:32:48;101769.11;;;16.65;50.01
68145;BME280;55400;51.824;-0.196;2023-05-02T16:36:48;101767.33;;;16.69;49.54
68145;BME280;55400;51.824;-0.196;2023-05-02T16:40:48;101761.97;;;16.70;49.12
68145;BME280;55400;51.824;-0.196;2023-05-02T16:44:48;101756.24;;;16.73;49.14
68145;BME280;55400;51.824;-0.196;2023-05-02T16:48:48;101756.24;;;16.81;49.19
68145;BME280;55400;51.824;-0.196;2023-05-02T16:52:48;101761.35;;;16.85;48.63
68145;BME280;55400;51.824;-0.196;2023-05-02T16:56:48;101761.35;;;16.70;48.63
68145;BME280;55400;51.824;-0.196;2023-05-02T17:00:48;101771.77;;;16.52;48.73
68145;BME280;55400;51.824;-0.196;2023-05-02T17:04:48;101771.77;;;16.35;48.73
68145;BME280;55400;51.824;-0.196;2023-05-02T17:08:48;101775.11;;;16.18;48.85
68145;BME280;55400;51.824;-0.196;2023-05-02T17:12:48;101775.11;;;16.13;49.19
68145;BME280;55400;51.824;-0.196;2023-05-02T17:16:48;101772.2;;;16.09;49.69
68145;BME280;55400;51.824;-0.196;2023-05-02T17:20:48;101772.2;;;16.06;49.75
68145;BME280;55400;51.824;-0.196;2023-05-02T17:24:48;101768.45;;;15.89;49.96
68145;BME280;55400;51.824;-0.196;2023-05-02T17:28:48;101760.29999999999;;;15.83;50.08
68145;BME280;55400;51.824;-0.196;2023-05-02T17:32:48;101759.23;;;15.84;51.24
68145;BME280;55400;51.824;-0.196;2023-05-02T17:36:48;101759.23;;;15.83;51.24
68145;BME280;55400;51.824;-0.196;2023-05-02T17:40:48;101765.7;;;15.81;51.12
68145;BME280;55400;51.824;-0.196;2023-05-02T17:44:48;101765.7;;;15.84;51.12
68145;BME280;55400;51.824;-0.196;2023-05-02T17:48:48;101772.67;;;15.96;50.89
68145;BME280;55400;51.824;-0.196;2023-05-02T17:52:49;101766.57;;;16.02;50.31
68145;BME280;55400;51.824;-0.196;2023-05-02T17:56:48;101756.59000000001;;;15.99;50.45
68145;BME280;55400;51.824;-0.196;2023-05-02T18:00:48;101753.71;;;16.03;50.45
68145;BME280;55400;51.824;-0.196;2023-05-02T18:04:48;101757.83;;;16.21;50.30
68145;BME280;55400;51.824;-0.196;2023-05-02T18:08:48;101757.83;;;16.32;50.30
68145;BME280;55400;51.824;-0.196;2023-05-02T18:12:48;101752.48;;;16.40;50.41
68145;BME280;55400;51.824;-0.196;2023-05-02T18:16:48;101752.48;;;16.38;49.83
68145;BME280;55400;51.824;-0.196;2023-05-02T18:20:48;101753.43000000001;;;16.24;50.00
68145;BME280;55400;51.824;-0.196;2023-05-02T18:24:48;101753.43000000001;;;16.01;50.25
68145;BME280;55400;51.824;-0.196;2023-05-02T18:28:48;101751.39;;;15.78;50.08
68145;BME280;55400;51.824;-0.196;2023-05-02T18:32:48;101750.61;;;15.62;50.57
68145;BME280;55400;51.824;-0.196;2023-05-02T18:36:48;101753.02;;;15.48;50.84
68145;BME280;55400;51.824;-0.196;2023-05-02T18:40:48;101756.16;;;15.33;50.99
68145;BME280;55400;51.824;-0.196;2023-05-02T18:44:48;101756.16;;;15.23;51.24
68145;BME280;55400;51.824;-0.196;2023-05-02T18:48:49;101764.59;;;15.05;51.69
68145;BME280;55400;51.824;-0.196;2023-05-02T18:52:48;101767.36;;;14.96;51.69
68145;BME280;55400;51.824;-0.196;2023-05-02T18:56:48;101767.36;;;14.91;51.94
68145;BME280;55400;51.824;-0.196;2023-05-02T19:00:48;101772.79999999999;;;14.81;51.79
68145;BME280;55400;51.824;-0.196;2023-05-02T19:04:48;101775.81999999999;;;14.68;52.15
68145;BME280;55400;51.824;-0.196;2023-05-02T19:08:48;101783.15;;;14.55;52.04
68145;BME280;55400;51.824;-0.196;2023-05-02T19:12:48;101787.61;;;14.39;52.72
68145;BME280;55400;51.824;-0.196;2023-05-02T19:16:48;101787.61;;;14.31;52.72
68145;BME280;55400;51.824;-0.196;2023-05-02T19:20:48;101794.28;;;14.19;52.24
68145;BME280;55400;51.824;-0.196;2023-05-02T19:24:48;101795.08;;;14.10;52.24
68145;BME280;55400;51.824;-0.196;2023-05-02T19:28:49;101794.7;;;14.00;52.26
68145;BME280;55400;51.824;-0.196;2023-05-02T19:32:48;101794.7;;;13.93;52.31
68145;BME280;55400;51.824;-0.196;2023-05-02T19:36:48;101801.95999999999;;;13.82;52.45
68145;BME280;55400;51.824;-0.196;2023-05-02T19:40:48;101808.51;;;13.72;53.03
68145;BME280;55400;51.824;-0.196;2023-05-02T19:44:49;101819.11;;;13.64;53.03
68145;BME280;55400;51.824;-0.196;2023-05-02T19:48:48;101819.11;;;13.56;53.03
68145;BME280;55400;51.824;-0.196;2023-05-02T19:52:49;101830.51000000001;;;13.47;53.31
68145;BME280;55400;51.824;-0.196;2023-05-02T19:56:48;101833.39;;;13.32;53.31
68145;BME280;55400;51.824;-0.196;2023-05-02T20:00:49;101838.65;;;13.22;53.76
68145;BME280;55400;51.824;-0.196;2023-05-02T20:04:48;101836.21;;;13.15;54.10
68145;BME280;55400;51.824;-0.196;2023-05-02T20:08:48;101844.17;;;13.06;54.34
68145;BME280;55400;51.824;-0.196;2023-05-02T20:12:48;101851.83;;;13.01;54.67
68145;BME280;55400;51.824;-0.196;2023-05-02T20:16:49;101865.22;;;12.95;54.44
68145;BME280;55400;51.824;-0.196;2023-05-02T20:20:48;101872.37;;;12.81;54.52
68145;BME280;55400;51.824;-0.196;2023-05-02T20:24:48;101875.8;;;12.72;54.53
68145;BME280;55400;51.824;-0.196;2023-05-02T20:28:48;101886.06999999999;;;12.69;54.77
68145;BME280;55400;51.824;-0.196;2023-05-02T20:32:48;101884.59;;;12.68;54.77
68145;BME280;55400;51.824;-0.196;2023-05-02T20:36:48;101884.59;;;12.67;54.92
68145;BME280;55400;51.824;-0.196;2023-05-02T20:40:49;101878.15000000001;;;12.60;54.93
68145;BME280;55400;51.824;-0.196;2023-05-02T20:44:52;101879.17;;;12.55;54.93
68145;BME280;55400;51.824;-0.196;2023-05-02T20:48:49;101879.17;;;12.43;54.78
68145;BME280;55400;51.824;-0.196;2023-05-02T20:52:49;101884.5;;;12.42;55.08
68145;BME280;55400;51.824;-0.196;2023-05-02T20:56:49;101882.46;;;12.41;55.27
68145;BME280;55400;51.824;-0.196;2023-05-02T21:00:48;101886.91;;;12.36;55.27
68145;BME280;55400;51.824;-0.196;2023-05-02T21:04:49;101880.4;;;12.25;55.25
68145;BME280;55400;51.824;-0.196;2023-05-02T21:08:49;101879.86;;;12.17;55.18
68145;BME280;55400;51.824;-0.196;2023-05-02T21:12:49;101879.86;;;12.14;55.53
68145;BME280;55400;51.824;-0.196;2023-05-02T21:16:49;101876.29;;;12.08;55.52
68145;BME280;55400;51.824;-0.196;2023-05-02T21:20:49;101880.95;;;12.05;55.78
68145;BME280;55400;51.824;-0.196;2023-05-02T21:24:49;101880.88;;;12.00;55.91
68145;BME280;55400;51.824;-0.196;2023-05-02T21:28:49;101873.87999999999;;;11.97;55.91
68145;BME280;55400;51.824;-0.196;2023-05-02T21:32:49;101873.87999999999;;;11.89;55.95
68145;BME280;55400;51.824;-0.196;2023-05-02T21:36:49;101860.56999999999;;;11.87;56.21
68145;BME280;55400;51.824;-0.196;2023-05-02T21:40:49;101860.56999999999;;;11.83;56.21
68145;BME280;55400;51.824;-0.196;2023-05-02T21:44:49;101858.32;;;11.79;56.19
68145;BME280;55400;51.824;-0.196;2023-05-02T21:48:49;101850.36;;;11.74;56.14